createdAt,value
2022-12-15T00:00:48.423Z,32.40
2022-12-15T00:03:46.486Z,29.20
2022-12-15T00:06:32.961Z,27.00
2022-12-15T00:09:20.731Z,27.50
2022-12-15T00:12:08.053Z,26.90
2022-12-15T00:14:55.035Z,30.50
2022-12-15T00:17:41.875Z,28.70
2022-12-15T00:20:29.422Z,28.90
2022-12-15T00:23:16.939Z,29.60
2022-12-15T00:26:03.851Z,29.50
2022-12-15T00:28:50.150Z,31.80
2022-12-15T00:31:36.978Z,31.30
2022-12-15T00:34:23.738Z,29.50
2022-12-15T00:37:10.487Z,31.60
2022-12-15T00:39:40.345Z,31.10
2022-12-15T00:42:09.904Z,30.60
2022-12-15T00:44:38.087Z,31.80
2022-12-15T00:47:06.653Z,28.30
2022-12-15T00:50:13.702Z,27.50
2022-12-15T00:53:00.671Z,26.30
2022-12-15T00:55:47.313Z,28.50
2022-12-15T00:58:34.140Z,28.20
2022-12-15T01:01:28.730Z,24.40
2022-12-15T01:04:15.685Z,27.10
2022-12-15T01:07:02.953Z,28.60
2022-12-15T01:09:49.377Z,27.30
2022-12-15T01:12:36.638Z,25.10
2022-12-15T01:15:23.963Z,23.30
2022-12-15T01:18:11.128Z,24.90
2022-12-15T01:20:39.702Z,21.80
2022-12-15T01:23:07.882Z,23.20
2022-12-15T01:25:39.561Z,24.20
2022-12-15T01:28:07.707Z,26.00
2022-12-15T01:30:35.850Z,27.00
2022-12-15T01:33:04.019Z,26.40
2022-12-15T01:35:32.363Z,26.40
2022-12-15T01:38:00.760Z,24.20
2022-12-15T01:40:50.223Z,28.60
2022-12-15T01:43:22.580Z,24.00
2022-12-15T01:45:54.081Z,26.40
2022-12-15T01:48:30.628Z,27.70
2022-12-15T01:51:17.229Z,26.30
2022-12-15T01:53:54.807Z,29.00
2022-12-15T01:56:26.385Z,28.60
2022-12-15T01:59:00.473Z,24.70
2022-12-15T02:01:29.757Z,26.70
2022-12-15T02:03:58.079Z,28.20
2022-12-15T02:06:27.242Z,28.40
2022-12-15T02:08:58.814Z,26.50
2022-12-15T02:11:37.518Z,27.90
2022-12-15T02:14:11.510Z,29.20
2022-12-15T02:17:15.208Z,28.80
2022-12-15T02:22:32.674Z,25.60
2022-12-15T02:25:16.090Z,26.10
2022-12-15T02:28:25.798Z,26.50
2022-12-15T02:31:22.099Z,23.90
2022-12-15T02:34:01.822Z,27.10
2022-12-15T02:36:45.549Z,24.60
2022-12-15T02:39:14.409Z,22.70
2022-12-15T02:41:46.301Z,25.10
2022-12-15T02:44:23.234Z,26.20
2022-12-15T02:47:16.070Z,27.10
2022-12-15T02:50:05.731Z,23.30
2022-12-15T02:52:46.061Z,26.00
2022-12-15T02:55:17.270Z,28.40
2022-12-15T02:57:53.942Z,27.70
2022-12-15T03:00:23.109Z,27.90
2022-12-15T03:02:54.369Z,28.10
2022-12-15T03:05:25.050Z,29.80
2022-12-15T03:07:54.957Z,28.60
2022-12-15T03:10:25.556Z,28.80
2022-12-15T03:12:55.085Z,28.70
2022-12-15T03:15:23.771Z,31.50
2022-12-15T03:17:52.612Z,30.80
2022-12-15T03:20:20.956Z,29.90
2022-12-15T03:22:49.137Z,24.40
2022-12-15T03:25:17.358Z,29.50
2022-12-15T03:27:46.532Z,29.50
2022-12-15T03:30:15.155Z,29.80
2022-12-15T03:32:43.373Z,31.10
2022-12-15T03:35:13.096Z,30.80
2022-12-15T03:37:43.036Z,30.30
2022-12-15T03:40:14.095Z,30.00
2022-12-15T03:42:48.953Z,31.50
2022-12-15T03:45:20.948Z,31.40
2022-12-15T03:47:50.704Z,31.50
2022-12-15T03:50:21.455Z,30.10
2022-12-15T03:52:55.221Z,29.80
2022-12-15T03:55:24.345Z,30.20
2022-12-15T03:57:52.705Z,30.40
2022-12-15T04:00:22.066Z,30.50
2022-12-15T04:02:52.224Z,32.10
2022-12-15T04:05:32.398Z,38.90
2022-12-15T04:08:01.690Z,34.70
2022-12-15T04:10:34.760Z,33.20
2022-12-15T04:13:11.376Z,35.70
2022-12-15T04:15:40.861Z,33.30
2022-12-15T04:18:11.046Z,32.40
2022-12-15T04:20:40.479Z,34.50
2022-12-15T04:23:08.898Z,33.00
2022-12-15T04:25:55.810Z,35.40
2022-12-15T04:28:42.465Z,32.60
2022-12-15T04:31:32.051Z,36.80
2022-12-15T04:34:22.887Z,36.00
2022-12-15T04:37:12.148Z,37.10
2022-12-15T04:40:06.124Z,38.20
2022-12-15T04:42:54.504Z,39.90
2022-12-15T04:45:43.645Z,44.30
2022-12-15T04:48:30.381Z,51.90
2022-12-15T04:51:17.620Z,50.60
2022-12-15T04:54:04.609Z,50.70
2022-12-15T04:56:54.068Z,57.10
2022-12-15T04:59:40.893Z,57.10
2022-12-15T05:02:27.709Z,59.60
2022-12-15T05:05:14.285Z,57.70
2022-12-15T05:08:01.213Z,59.10
2022-12-15T05:10:47.926Z,51.40
2022-12-15T05:13:35.070Z,48.50
2022-12-15T05:16:23.439Z,37.20
2022-12-15T05:19:10.202Z,41.70
2022-12-15T05:21:56.714Z,43.70
2022-12-15T05:24:43.623Z,42.90
2022-12-15T05:27:30.471Z,48.40
2022-12-15T05:30:17.141Z,52.90
2022-12-15T05:32:45.301Z,57.10
2022-12-15T05:35:13.700Z,52.20
2022-12-15T05:37:41.859Z,50.80
2022-12-15T05:40:10.571Z,52.80
2022-12-15T05:42:38.710Z,56.70
2022-12-15T05:45:07.337Z,60.90
2022-12-15T05:47:36.038Z,63.80
2022-12-15T05:50:04.493Z,65.90
2022-12-15T05:52:32.830Z,78.80
2022-12-15T05:55:01.049Z,76.50
2022-12-15T05:57:29.257Z,68.90
2022-12-15T05:59:57.457Z,72.50
2022-12-15T06:02:25.766Z,67.10
2022-12-15T06:04:54.262Z,70.40
2022-12-15T06:07:22.777Z,62.20
2022-12-15T06:09:50.908Z,58.40
2022-12-15T06:12:19.115Z,51.70
2022-12-15T06:14:47.394Z,49.50
2022-12-15T06:17:18.163Z,50.90
2022-12-15T06:19:46.569Z,51.10
2022-12-15T06:22:14.917Z,54.90
2022-12-15T06:24:43.092Z,45.90
2022-12-15T06:27:11.388Z,55.80
2022-12-15T06:29:39.592Z,53.70
2022-12-15T06:32:07.820Z,50.30
2022-12-15T06:34:36.033Z,53.60
2022-12-15T06:37:04.697Z,51.20
2022-12-15T06:39:32.885Z,51.10
2022-12-15T06:42:01.065Z,52.00
2022-12-15T06:44:29.389Z,52.00
2022-12-15T06:46:57.793Z,56.10
2022-12-15T06:49:25.989Z,59.70
2022-12-15T06:51:54.118Z,58.00
2022-12-15T06:54:22.461Z,64.80
2022-12-15T06:56:50.887Z,69.80
2022-12-15T06:59:19.130Z,55.50
2022-12-15T07:01:47.716Z,58.70
2022-12-15T07:04:16.085Z,54.60
2022-12-15T07:06:45.444Z,58.10
2022-12-15T07:09:17.219Z,62.60
2022-12-15T07:11:49.380Z,61.70
2022-12-15T07:14:17.724Z,55.10
2022-12-15T07:16:46.328Z,60.50
2022-12-15T07:19:14.659Z,56.80
2022-12-15T07:21:42.996Z,58.30
2022-12-15T07:24:13.145Z,57.10
2022-12-15T07:26:41.865Z,63.10
2022-12-15T07:29:10.450Z,56.20
2022-12-15T07:31:38.954Z,63.80
2022-12-15T07:34:07.407Z,61.50
2022-12-15T07:36:35.639Z,57.30
2022-12-15T07:39:05.139Z,56.00
2022-12-15T07:41:35.655Z,58.00
2022-12-15T07:44:04.312Z,60.80
2022-12-15T07:46:32.971Z,53.60
2022-12-15T07:49:01.282Z,59.20
2022-12-15T07:51:29.824Z,62.70
2022-12-15T07:53:58.166Z,63.40
2022-12-15T07:56:26.455Z,63.80
2022-12-15T07:58:54.691Z,71.80
2022-12-15T08:01:23.007Z,76.00
2022-12-15T08:03:51.437Z,74.40
2022-12-15T08:06:19.819Z,75.70
2022-12-15T08:08:50.609Z,80.50
2022-12-15T08:11:22.839Z,87.50
2022-12-15T08:16:40.192Z,85.20
2022-12-15T08:19:13.079Z,74.20
2022-12-15T08:21:43.017Z,75.30
2022-12-15T08:24:12.058Z,71.60
2022-12-15T08:26:42.501Z,56.40
2022-12-15T08:32:02.168Z,52.70
2022-12-15T08:34:31.132Z,63.10
2022-12-15T08:36:59.560Z,56.00
2022-12-15T08:39:28.031Z,49.40
2022-12-15T08:41:56.483Z,54.90
2022-12-15T08:44:25.075Z,57.00
2022-12-15T08:46:53.757Z,58.40
2022-12-15T08:49:22.679Z,54.10
2022-12-15T08:51:51.604Z,55.90
2022-12-15T08:54:20.906Z,57.20
2022-12-15T08:56:50.125Z,45.70
2022-12-15T08:59:19.556Z,57.80
2022-12-15T09:01:48.598Z,47.80
2022-12-15T09:04:17.967Z,50.90
2022-12-15T09:06:50.710Z,43.10
2022-12-15T09:11:49.295Z,47.70
2022-12-15T09:14:25.517Z,47.30
2022-12-15T09:16:55.735Z,43.70
2022-12-15T09:19:24.092Z,51.50
2022-12-15T09:21:52.371Z,46.00
2022-12-15T09:24:32.230Z,51.70
2022-12-15T09:27:03.561Z,56.80
2022-12-15T09:29:32.543Z,48.80
2022-12-15T09:32:01.185Z,52.10
2022-12-15T09:34:30.193Z,57.60
2022-12-15T09:36:58.689Z,47.80
2022-12-15T09:39:27.455Z,45.20
2022-12-15T09:41:59.373Z,47.80
2022-12-15T09:44:32.223Z,49.40
2022-12-15T09:47:30.710Z,44.60
2022-12-15T09:50:03.304Z,53.50
2022-12-15T09:52:42.677Z,47.90
2022-12-15T09:55:23.385Z,51.50
2022-12-15T09:57:56.269Z,57.30
2022-12-15T10:03:16.441Z,51.50
2022-12-15T10:06:07.299Z,49.00
2022-12-15T10:08:36.979Z,51.10
2022-12-15T10:11:13.996Z,50.60
2022-12-15T10:13:58.682Z,47.10
2022-12-15T10:16:50.263Z,46.40
2022-12-15T10:19:31.297Z,44.00
2022-12-15T10:22:00.321Z,52.30
2022-12-15T10:27:50.871Z,38.40
2022-12-15T10:30:19.888Z,34.10
2022-12-15T10:32:57.998Z,48.30
2022-12-15T10:35:31.089Z,37.80
2022-12-15T10:38:03.874Z,40.30
2022-12-15T10:40:52.383Z,49.30
2022-12-15T10:43:27.658Z,42.90
2022-12-15T10:46:13.775Z,50.40
2022-12-15T10:48:44.631Z,49.30
2022-12-15T10:51:22.080Z,43.00
2022-12-15T10:54:04.755Z,46.90
2022-12-15T10:56:34.777Z,42.90
2022-12-15T10:59:22.814Z,42.50
2022-12-15T11:01:52.365Z,44.60
2022-12-15T11:04:34.184Z,38.30
2022-12-15T11:07:04.266Z,40.10
2022-12-15T11:09:38.736Z,41.30
2022-12-15T11:12:50.518Z,48.40
2022-12-15T11:15:31.349Z,47.30
2022-12-15T11:18:11.401Z,45.70
2022-12-15T11:20:50.782Z,42.50
2022-12-15T11:23:28.092Z,44.90
2022-12-15T11:26:22.630Z,45.40
2022-12-15T11:29:00.029Z,40.20
2022-12-15T11:31:38.542Z,41.10
2022-12-15T11:34:17.817Z,38.00
2022-12-15T11:37:07.461Z,38.60
2022-12-15T11:39:49.650Z,41.60
2022-12-15T11:42:45.064Z,32.20
2022-12-15T11:45:22.736Z,37.40
2022-12-15T11:47:56.482Z,36.40
2022-12-15T11:51:06.607Z,42.80
2022-12-15T11:53:59.516Z,43.00
2022-12-15T11:56:33.935Z,45.20
2022-12-15T11:59:20.829Z,46.20
2022-12-15T12:02:03.055Z,48.00
2022-12-15T12:08:16.269Z,44.30
2022-12-15T12:10:47.912Z,35.20
2022-12-15T12:13:35.601Z,40.50
2022-12-15T12:16:35.516Z,44.20
2022-12-15T12:19:03.827Z,44.00
2022-12-15T12:21:40.032Z,43.90
2022-12-15T12:24:11.273Z,40.00
2022-12-15T12:26:51.154Z,35.30
2022-12-15T12:29:34.518Z,39.40
2022-12-15T12:32:40.166Z,38.20
2022-12-15T12:35:33.212Z,39.90
2022-12-15T12:41:06.297Z,31.90
2022-12-15T12:43:40.405Z,40.40
2022-12-15T12:46:20.470Z,39.20
2022-12-15T12:49:03.732Z,42.60
2022-12-15T12:54:02.410Z,39.00
2022-12-15T12:56:39.424Z,41.30
2022-12-15T12:59:30.864Z,41.30
2022-12-15T13:02:14.669Z,43.20
2022-12-15T13:04:50.116Z,42.80
2022-12-15T13:07:36.724Z,41.80
2022-12-15T13:10:07.845Z,38.60
2022-12-15T13:13:15.853Z,36.40
2022-12-15T13:15:50.929Z,43.70
2022-12-15T13:18:25.348Z,45.50
2022-12-15T13:20:57.741Z,46.00
2022-12-15T13:23:27.777Z,39.00
2022-12-15T13:25:59.182Z,41.60
2022-12-15T13:28:38.448Z,45.40
2022-12-15T13:31:21.877Z,44.20
2022-12-15T13:33:50.892Z,40.80
2022-12-15T13:36:37.630Z,40.80
2022-12-15T13:39:12.627Z,42.70
2022-12-15T13:42:00.324Z,46.80
2022-12-15T13:44:35.552Z,47.50
2022-12-15T13:47:13.754Z,47.80
2022-12-15T13:50:01.368Z,50.70
2022-12-15T13:55:40.749Z,42.30
2022-12-15T13:58:09.530Z,43.70
2022-12-15T14:00:48.715Z,40.80
2022-12-15T14:03:20.307Z,46.70
2022-12-15T14:05:55.527Z,44.60
2022-12-15T14:08:27.119Z,45.00
2022-12-15T14:10:58.928Z,45.90
2022-12-15T14:13:35.686Z,53.50
2022-12-15T14:16:07.807Z,51.50
2022-12-15T14:19:04.267Z,47.60
2022-12-15T14:21:32.692Z,52.50
2022-12-15T14:26:50.823Z,49.80
2022-12-15T14:29:20.372Z,47.80
2022-12-15T14:31:53.649Z,52.00
2022-12-15T14:34:27.301Z,39.10
2022-12-15T14:36:59.427Z,49.90
2022-12-15T14:39:40.695Z,48.30
2022-12-15T14:42:19.367Z,48.10
2022-12-15T14:44:50.868Z,48.30
2022-12-15T14:47:28.727Z,48.80
2022-12-15T14:50:01.347Z,49.20
2022-12-15T14:52:35.178Z,47.00
2022-12-15T14:55:35.197Z,45.60
2022-12-15T14:58:36.398Z,48.30
2022-12-15T15:01:25.464Z,49.30
2022-12-15T15:03:10.972Z,39.20
2022-12-15T15:03:14.310Z,51.40
2022-12-15T15:04:02.480Z,49.70
2022-12-15T15:06:40.491Z,47.90
2022-12-15T15:09:19.211Z,48.30
2022-12-15T15:11:50.461Z,40.10
2022-12-15T15:14:24.005Z,42.60
2022-12-15T15:17:22.940Z,41.00
2022-12-15T15:20:04.040Z,40.90
2022-12-15T15:23:08.003Z,44.20
2022-12-15T15:25:48.909Z,44.00
2022-12-15T15:28:20.242Z,37.20
2022-12-15T15:30:59.537Z,31.10
2022-12-15T15:33:28.668Z,43.90
2022-12-15T15:36:01.881Z,46.70
2022-12-15T15:38:38.319Z,45.80
2022-12-15T15:41:16.457Z,39.30
2022-12-15T15:43:46.096Z,45.10
2022-12-15T15:46:18.450Z,44.10
2022-12-15T15:49:01.205Z,47.60
2022-12-15T15:51:32.396Z,44.10
2022-12-15T15:54:11.849Z,41.20
2022-12-15T15:56:41.765Z,43.20
2022-12-15T15:59:16.533Z,44.80
2022-12-15T16:01:47.351Z,50.40
2022-12-15T16:04:16.293Z,48.90
2022-12-15T16:06:47.519Z,46.40
2022-12-15T16:09:17.107Z,41.90
2022-12-15T16:11:46.783Z,43.60
2022-12-15T16:14:17.773Z,41.40
2022-12-15T16:16:46.672Z,42.00
2022-12-15T16:19:15.328Z,47.00
2022-12-15T16:21:44.003Z,44.30
2022-12-15T16:24:18.937Z,44.20
2022-12-15T16:26:50.575Z,48.90
2022-12-15T16:29:20.956Z,47.80
2022-12-15T16:31:49.770Z,45.20
2022-12-15T16:34:20.699Z,45.00
2022-12-15T16:36:49.635Z,39.80
2022-12-15T16:39:32.069Z,45.90
2022-12-15T16:42:00.989Z,46.40
2022-12-15T16:44:30.076Z,34.20
2022-12-15T16:46:59.707Z,45.20
2022-12-15T16:49:33.858Z,39.70
2022-12-15T16:52:06.644Z,43.60
2022-12-15T16:54:35.180Z,36.00
2022-12-15T16:57:05.748Z,44.60
2022-12-15T16:59:37.255Z,44.00
2022-12-15T17:02:28.230Z,46.30
2022-12-15T17:04:57.081Z,38.50
2022-12-15T17:07:27.892Z,43.20
2022-12-15T17:09:56.908Z,38.00
2022-12-15T17:12:25.872Z,44.80
2022-12-15T17:14:54.523Z,41.40
2022-12-15T17:17:22.911Z,36.80
2022-12-15T17:20:27.568Z,39.80
2022-12-15T17:22:40.790Z,41.30
2022-12-15T17:25:53.970Z,40.50
2022-12-15T17:28:40.933Z,34.40
2022-12-15T17:31:18.722Z,40.20
2022-12-15T17:33:48.215Z,40.50
2022-12-15T17:36:22.744Z,44.10
2022-12-15T17:39:02.019Z,44.30
2022-12-15T17:41:59.869Z,42.50
2022-12-15T17:44:32.936Z,38.00
2022-12-15T17:47:04.756Z,43.30
2022-12-15T17:49:36.382Z,45.30
2022-12-15T17:52:18.146Z,43.70
2022-12-15T17:54:46.603Z,40.40
2022-12-15T17:57:15.303Z,42.50
2022-12-15T17:59:43.796Z,43.00
2022-12-15T18:02:13.869Z,44.30
2022-12-15T18:04:43.223Z,45.90
2022-12-15T18:07:16.979Z,40.40
2022-12-15T18:09:45.804Z,45.10
2022-12-15T18:12:22.728Z,49.30
2022-12-15T18:14:51.323Z,43.60
2022-12-15T18:17:20.783Z,36.30
2022-12-15T18:19:49.396Z,44.60
2022-12-15T18:22:23.519Z,47.40
2022-12-15T18:24:53.928Z,47.80
2022-12-15T18:27:26.476Z,41.90
2022-12-15T18:29:56.790Z,42.50
2022-12-15T18:32:27.476Z,42.90
2022-12-15T18:34:56.109Z,41.50
2022-12-15T18:37:25.427Z,43.00
2022-12-15T18:39:57.144Z,46.30
2022-12-15T18:42:29.538Z,40.60
2022-12-15T18:45:00.481Z,43.00
2022-12-15T18:47:28.875Z,35.80
2022-12-15T18:49:57.093Z,38.90
2022-12-15T18:52:34.418Z,31.20
2022-12-15T18:55:03.341Z,39.80
2022-12-15T18:57:36.128Z,46.80
2022-12-15T19:02:37.136Z,36.10
2022-12-15T19:05:07.331Z,40.10
2022-12-15T19:07:36.186Z,37.80
2022-12-15T19:10:05.357Z,41.40
2022-12-15T19:12:34.430Z,35.80
2022-12-15T19:15:02.906Z,40.00
2022-12-15T19:17:49.809Z,38.80
2022-12-15T19:20:38.913Z,40.30
2022-12-15T19:23:08.009Z,39.20
2022-12-15T19:25:36.512Z,40.10
2022-12-15T19:28:10.529Z,43.80
2022-12-15T19:30:42.220Z,37.40
2022-12-15T19:33:15.202Z,41.60
2022-12-15T19:35:46.806Z,37.10
2022-12-15T19:38:28.358Z,35.10
2022-12-15T19:40:59.186Z,34.70
2022-12-15T19:43:27.674Z,34.90
2022-12-15T19:45:57.953Z,38.00
2022-12-15T19:48:26.442Z,38.90
2022-12-15T19:50:55.119Z,39.00
2022-12-15T19:53:25.675Z,38.10
2022-12-15T19:55:56.282Z,39.40
2022-12-15T19:58:28.943Z,36.40
2022-12-15T20:01:00.491Z,36.30
2022-12-15T20:03:33.103Z,43.20
2022-12-15T20:06:03.901Z,40.20
2022-12-15T20:08:37.680Z,42.10
2022-12-15T20:11:14.981Z,43.30
2022-12-15T20:13:43.878Z,43.70
2022-12-15T20:16:17.738Z,41.00
2022-12-15T20:18:48.769Z,46.20
2022-12-15T20:21:22.252Z,45.90
2022-12-15T20:24:07.884Z,47.70
2022-12-15T20:26:39.495Z,45.00
2022-12-15T20:29:26.213Z,48.30
2022-12-15T20:31:56.796Z,45.80
2022-12-15T20:34:25.902Z,41.50
2022-12-15T20:36:54.895Z,45.50
2022-12-15T20:39:29.584Z,44.90
2022-12-15T20:41:59.175Z,43.30
2022-12-15T20:44:27.994Z,42.20
2022-12-15T20:46:56.734Z,45.50
2022-12-15T20:49:25.160Z,42.60
2022-12-15T20:51:53.606Z,41.70
2022-12-15T20:54:22.900Z,42.70
2022-12-15T20:56:51.391Z,41.90
2022-12-15T20:59:20.166Z,41.80
2022-12-15T21:01:48.801Z,42.10
2022-12-15T21:04:27.592Z,39.20
2022-12-15T21:06:56.828Z,46.10
2022-12-15T21:09:25.538Z,43.10
2022-12-15T21:11:55.295Z,43.30
2022-12-15T21:14:24.889Z,47.10
2022-12-15T21:16:53.661Z,42.50
2022-12-15T21:19:22.991Z,40.90
2022-12-15T21:21:55.430Z,38.90
2022-12-15T21:24:27.270Z,39.00
2022-12-15T21:26:56.297Z,34.90
2022-12-15T21:29:27.880Z,39.70
2022-12-15T21:31:56.387Z,38.00
2022-12-15T21:34:24.705Z,39.00
2022-12-15T21:36:55.017Z,37.50
2022-12-15T21:39:31.176Z,39.60
2022-12-15T21:42:03.363Z,37.40
2022-12-15T21:44:31.817Z,38.00
2022-12-15T21:47:00.452Z,39.40
2022-12-15T21:49:29.294Z,39.40
2022-12-15T21:52:00.362Z,39.10
2022-12-15T21:54:35.005Z,35.70
2022-12-15T21:57:03.931Z,36.80
2022-12-15T21:59:33.331Z,37.30
2022-12-15T22:02:02.609Z,34.30
2022-12-15T22:04:34.554Z,36.90
2022-12-15T22:07:03.437Z,35.80
2022-12-15T22:09:31.972Z,37.90
2022-12-15T22:12:01.332Z,27.90
2022-12-15T22:14:34.382Z,32.90
2022-12-15T22:19:41.056Z,32.60
2022-12-15T22:22:09.451Z,37.00
2022-12-15T22:24:38.275Z,33.10
2022-12-15T22:27:17.958Z,33.80
2022-12-15T22:29:47.231Z,34.80
2022-12-15T22:32:17.439Z,33.80
2022-12-15T22:34:45.862Z,36.70
2022-12-15T22:37:14.425Z,35.10
2022-12-15T22:39:42.875Z,33.90
2022-12-15T22:42:16.966Z,37.30
2022-12-15T22:44:46.085Z,29.00
2022-12-15T22:47:14.914Z,32.10
2022-12-15T22:49:43.542Z,35.50
2022-12-15T22:52:20.621Z,35.40
2022-12-15T22:54:49.098Z,32.70
2022-12-15T22:57:26.183Z,36.30
2022-12-15T23:00:05.000Z,36.90
2022-12-15T23:02:37.001Z,32.20
2022-12-15T23:05:06.724Z,33.70
2022-12-15T23:07:35.764Z,34.40
2022-12-15T23:10:23.647Z,31.90
2022-12-15T23:12:54.875Z,36.50
2022-12-15T23:15:44.331Z,33.10
2022-12-15T23:18:13.663Z,36.40
2022-12-15T23:20:42.633Z,36.30
2022-12-15T23:23:11.122Z,38.20
2022-12-15T23:25:39.581Z,36.20
2022-12-15T23:28:08.344Z,33.30
2022-12-15T23:30:36.851Z,36.30
2022-12-15T23:33:05.718Z,37.30
2022-12-15T23:35:34.181Z,36.60
2022-12-15T23:38:03.076Z,33.50
2022-12-15T23:40:31.389Z,37.80
2022-12-15T23:43:00.753Z,31.50
2022-12-15T23:45:29.094Z,36.60
2022-12-15T23:47:57.556Z,37.10
2022-12-15T23:50:26.472Z,34.20
2022-12-15T23:52:54.906Z,35.10
2022-12-15T23:55:23.326Z,29.80
2022-12-15T23:57:51.936Z,36.30
